createdAt,value
2022-10-01T00:01:18.255Z,100060.59
2022-10-01T00:03:45.117Z,100050.44
2022-10-01T00:06:12.908Z,100050.78
2022-10-01T00:08:41.215Z,100042.34
2022-10-01T00:11:14.087Z,100030.50
2022-10-01T00:13:43.013Z,100029.44
2022-10-01T00:16:12.449Z,100010.44
2022-10-01T00:18:40.958Z,99985.78
2022-10-01T00:21:13.598Z,99966.53
2022-10-01T00:23:40.617Z,99949.97
2022-10-01T00:26:21.762Z,99954.09
2022-10-01T00:28:53.626Z,99968.63
2022-10-01T00:31:20.426Z,99988.16
2022-10-01T00:33:47.466Z,100003.06
2022-10-01T00:36:14.151Z,99996.41
2022-10-01T00:38:40.969Z,99988.38
2022-10-01T00:41:08.575Z,99986.34
2022-10-01T00:43:40.253Z,99993.72
2022-10-01T00:46:15.747Z,99988.59
2022-10-01T00:48:59.703Z,99969.06
2022-10-01T00:51:29.990Z,99970.03
2022-10-01T00:54:04.793Z,99972.53
2022-10-01T00:56:32.141Z,99983.91
2022-10-01T00:59:00.109Z,99973.75
2022-10-01T01:01:26.663Z,99970.00
2022-10-01T01:03:53.053Z,99970.66
2022-10-01T01:06:19.511Z,99956.72
2022-10-01T01:08:45.890Z,99966.97
2022-10-01T01:11:23.054Z,99955.81
2022-10-01T01:14:01.353Z,99951.25
2022-10-01T01:16:55.011Z,99945.88
2022-10-01T01:19:37.804Z,99943.75
2022-10-01T01:22:08.268Z,99948.56
2022-10-01T01:24:40.493Z,99935.09
2022-10-01T01:27:16.214Z,99935.28
2022-10-01T01:30:10.347Z,99947.06
2022-10-01T01:32:59.155Z,99942.03
2022-10-01T01:35:44.477Z,99930.59
2022-10-01T01:38:17.483Z,99924.16
2022-10-01T01:40:51.269Z,99919.34
2022-10-01T01:43:24.035Z,99914.19
2022-10-01T01:45:55.040Z,99913.38
2022-10-01T01:48:24.199Z,99908.88
2022-10-01T01:51:06.653Z,99901.00
2022-10-01T01:53:33.956Z,99905.50
2022-10-01T01:56:00.486Z,99896.16
2022-10-01T01:58:28.118Z,99884.09
2022-10-01T02:00:54.925Z,99890.91
2022-10-01T02:03:25.783Z,99892.19
2022-10-01T02:06:27.241Z,99876.47
2022-10-01T02:09:08.608Z,99888.88
2022-10-01T02:11:44.315Z,99881.41
2022-10-01T02:14:36.661Z,99888.81
2022-10-01T02:17:17.903Z,99876.59
2022-10-01T02:19:56.015Z,99873.69
2022-10-01T02:22:32.521Z,99867.81
2022-10-01T02:25:03.789Z,99873.84
2022-10-01T02:27:33.199Z,99867.56
2022-10-01T02:30:07.772Z,99874.81
2022-10-01T02:32:37.829Z,99862.16
2022-10-01T02:35:07.360Z,99861.72
2022-10-01T02:37:36.754Z,99849.28
2022-10-01T02:40:07.871Z,99854.22
2022-10-01T02:42:36.913Z,99846.16
2022-10-01T02:45:05.258Z,99851.75
2022-10-01T02:47:41.583Z,99854.69
2022-10-01T02:50:09.370Z,99856.69
2022-10-01T02:52:45.550Z,99861.41
2022-10-01T02:55:17.685Z,99863.53
2022-10-01T02:57:44.180Z,99845.09
2022-10-01T03:00:13.447Z,99855.44
2022-10-01T03:02:39.832Z,99857.50
2022-10-01T03:05:06.777Z,99842.75
2022-10-01T03:07:37.909Z,99834.44
2022-10-01T03:10:05.553Z,99835.63
2022-10-01T03:12:32.121Z,99838.19
2022-10-01T03:14:58.962Z,99825.28
2022-10-01T03:17:25.342Z,99829.84
2022-10-01T03:19:51.888Z,99823.56
2022-10-01T03:22:24.474Z,99830.34
2022-10-01T03:24:52.262Z,99834.94
2022-10-01T03:27:19.412Z,99830.34
2022-10-01T03:29:45.973Z,99828.97
2022-10-01T03:32:13.638Z,99833.41
2022-10-01T03:34:40.310Z,99842.81
2022-10-01T03:37:07.048Z,99844.22
2022-10-01T03:39:33.818Z,99852.69
2022-10-01T03:42:00.645Z,99843.88
2022-10-01T03:44:28.289Z,99846.75
2022-10-01T03:46:55.246Z,99856.69
2022-10-01T03:49:21.588Z,99865.63
2022-10-01T03:51:47.965Z,99870.56
2022-10-01T03:54:14.498Z,99868.91
2022-10-01T03:56:42.514Z,99869.72
2022-10-01T03:59:11.005Z,99885.47
2022-10-01T04:01:38.878Z,99870.56
2022-10-01T04:04:06.288Z,99876.94
2022-10-01T04:06:32.862Z,99875.63
2022-10-01T04:08:59.270Z,99887.16
2022-10-01T04:11:25.867Z,99886.69
2022-10-01T04:13:52.350Z,99892.91
2022-10-01T04:16:18.878Z,99894.81
2022-10-01T04:18:45.264Z,99889.66
2022-10-01T04:21:12.728Z,99901.47
2022-10-01T04:23:39.246Z,99900.44
2022-10-01T04:26:05.747Z,99902.66
2022-10-01T04:28:32.295Z,99911.72
2022-10-01T04:31:17.727Z,99907.53
2022-10-01T04:33:44.518Z,99916.66
2022-10-01T04:36:11.017Z,99919.72
2022-10-01T04:38:37.441Z,99921.38
2022-10-01T04:41:04.101Z,99923.03
2022-10-01T04:43:30.449Z,99928.63
2022-10-01T04:45:56.854Z,99926.78
2022-10-01T04:48:24.013Z,99926.91
2022-10-01T04:50:50.362Z,99929.47
2022-10-01T04:53:16.704Z,99936.28
2022-10-01T04:55:43.645Z,99938.53
2022-10-01T04:58:10.468Z,99946.38
2022-10-01T05:00:36.907Z,99942.66
2022-10-01T05:03:03.336Z,99942.41
2022-10-01T05:05:32.821Z,99950.50
2022-10-01T05:07:59.184Z,99955.91
2022-10-01T05:10:26.053Z,99963.78
2022-10-01T05:12:52.485Z,99963.78
2022-10-01T05:15:19.372Z,99962.75
2022-10-01T05:17:46.885Z,99969.19
2022-10-01T05:20:20.538Z,99981.84
2022-10-01T05:22:47.462Z,99987.25
2022-10-01T05:25:14.280Z,99985.38
2022-10-01T05:27:40.978Z,99987.25
2022-10-01T05:30:11.888Z,99989.75
2022-10-01T05:32:39.047Z,99998.88
2022-10-01T05:35:07.198Z,100003.25
2022-10-01T05:37:34.567Z,99995.97
2022-10-01T05:40:01.595Z,100008.03
2022-10-01T05:42:27.929Z,100009.91
2022-10-01T05:44:54.274Z,100014.25
2022-10-01T05:47:20.884Z,100020.47
2022-10-01T05:49:47.239Z,100031.28
2022-10-01T05:52:16.265Z,100030.25
2022-10-01T05:54:42.693Z,100038.69
2022-10-01T05:57:09.394Z,100034.16
2022-10-01T05:59:35.979Z,100044.34
2022-10-01T06:02:03.816Z,100045.16
2022-10-01T06:04:30.401Z,100053.88
2022-10-01T06:06:56.767Z,100052.00
2022-10-01T06:09:23.194Z,100046.34
2022-10-01T06:11:49.942Z,100047.41
2022-10-01T06:14:17.220Z,100054.25
2022-10-01T06:16:43.699Z,100054.00
2022-10-01T06:19:10.240Z,100059.16
2022-10-01T06:21:37.246Z,100051.22
2022-10-01T06:24:04.044Z,100053.44
2022-10-01T06:26:31.087Z,100050.06
2022-10-01T06:28:57.582Z,100056.06
2022-10-01T06:31:24.063Z,100052.09
2022-10-01T06:33:50.470Z,100057.00
2022-10-01T06:36:16.898Z,100064.09
2022-10-01T06:38:43.284Z,100064.47
2022-10-01T06:41:09.896Z,100066.22
2022-10-01T06:43:36.258Z,100070.94
2022-10-01T06:46:04.656Z,100075.06
2022-10-01T06:48:32.263Z,100075.69
2022-10-01T06:50:59.512Z,100076.03
2022-10-01T06:53:27.674Z,100082.63
2022-10-01T06:55:55.152Z,100084.06
2022-10-01T06:58:26.129Z,100089.03
2022-10-01T07:01:01.867Z,100097.94
2022-10-01T07:03:28.982Z,100100.66
2022-10-01T07:06:02.087Z,100110.66
2022-10-01T07:08:28.490Z,100111.47
2022-10-01T07:10:59.740Z,100112.75
2022-10-01T07:13:26.121Z,100114.00
2022-10-01T07:15:52.479Z,100107.41
2022-10-01T07:18:18.988Z,100113.88
2022-10-01T07:20:45.365Z,100121.00
2022-10-01T07:23:13.437Z,100113.72
2022-10-01T07:25:40.824Z,100118.72
2022-10-01T07:28:16.087Z,100121.16
2022-10-01T07:30:44.133Z,100122.22
2022-10-01T07:33:10.505Z,100132.81
2022-10-01T07:35:38.120Z,100135.06
2022-10-01T07:38:06.413Z,100138.94
2022-10-01T07:40:32.945Z,100130.59
2022-10-01T07:42:59.330Z,100134.03
2022-10-01T07:45:26.750Z,100140.38
2022-10-01T07:48:04.170Z,100141.38
2022-10-01T07:50:30.722Z,100139.03
2022-10-01T07:52:58.685Z,100140.44
2022-10-01T07:55:27.183Z,100152.06
2022-10-01T07:57:57.994Z,100158.09
2022-10-01T08:00:28.426Z,100156.19
2022-10-01T08:02:56.150Z,100170.53
2022-10-01T08:05:25.654Z,100160.19
2022-10-01T08:07:52.277Z,100168.28
2022-10-01T08:10:20.239Z,100166.56
2022-10-01T08:12:46.656Z,100167.06
2022-10-01T08:15:15.885Z,100178.81
2022-10-01T08:17:43.081Z,100175.28
2022-10-01T08:20:12.333Z,100184.00
2022-10-01T08:22:42.111Z,100186.72
2022-10-01T08:25:09.777Z,100187.16
2022-10-01T08:27:36.734Z,100190.69
2022-10-01T08:30:03.670Z,100195.41
2022-10-01T08:32:31.057Z,100192.00
2022-10-01T08:34:59.768Z,100192.72
2022-10-01T08:37:27.702Z,100200.50
2022-10-01T08:39:55.344Z,100199.09
2022-10-01T08:42:59.869Z,100206.06
2022-10-01T08:45:34.808Z,100207.16
2022-10-01T08:48:31.644Z,100213.50
2022-10-01T08:51:05.986Z,100211.94
2022-10-01T08:53:45.485Z,100214.91
2022-10-01T08:56:35.138Z,100220.22
2022-10-01T08:59:27.215Z,100218.44
2022-10-01T09:01:55.733Z,100228.56
2022-10-01T09:04:22.987Z,100232.97
2022-10-01T09:07:04.201Z,100231.69
2022-10-01T09:09:49.910Z,100247.56
2022-10-01T09:12:33.841Z,100246.94
2022-10-01T09:15:06.738Z,100252.13
2022-10-01T09:17:55.034Z,100247.00
2022-10-01T09:20:34.942Z,100258.75
2022-10-01T09:23:04.056Z,100272.66
2022-10-01T09:25:32.107Z,100273.38
2022-10-01T09:28:07.018Z,100263.13
2022-10-01T09:30:35.413Z,100276.09
2022-10-01T09:33:23.201Z,100267.72
2022-10-01T09:36:21.823Z,100277.50
2022-10-01T09:39:03.917Z,100283.16
2022-10-01T09:41:31.404Z,100288.69
2022-10-01T09:43:57.978Z,100283.72
2022-10-01T09:46:26.437Z,100289.84
2022-10-01T09:49:05.166Z,100301.53
2022-10-01T09:51:42.762Z,100299.53
2022-10-01T09:54:37.848Z,100306.00
2022-10-01T09:57:32.245Z,100312.00
2022-10-01T10:00:20.136Z,100316.25
2022-10-01T10:02:49.744Z,100312.59
2022-10-01T10:05:26.985Z,100321.31
2022-10-01T10:07:54.826Z,100316.97
2022-10-01T10:10:29.505Z,100321.31
2022-10-01T10:13:13.687Z,100329.44
2022-10-01T10:15:50.807Z,100344.66
2022-10-01T10:18:27.849Z,100346.88
2022-10-01T10:20:55.673Z,100352.28
2022-10-01T10:23:29.168Z,100356.91
2022-10-01T10:26:03.038Z,100365.63
2022-10-01T10:28:43.668Z,100362.47
2022-10-01T10:31:15.911Z,100377.31
2022-10-01T10:33:52.938Z,100378.25
2022-10-01T10:36:21.444Z,100383.91
2022-10-01T10:38:50.866Z,100384.97
2022-10-01T10:41:25.861Z,100396.41
2022-10-01T10:43:56.537Z,100400.28
2022-10-01T10:46:29.259Z,100399.94
2022-10-01T10:49:31.211Z,100407.97
2022-10-01T10:52:00.753Z,100407.25
2022-10-01T10:54:41.668Z,100417.00
2022-10-01T10:57:21.214Z,100421.59
2022-10-01T10:59:59.428Z,100432.44
2022-10-01T11:02:30.026Z,100431.63
2022-10-01T11:05:03.764Z,100431.28
2022-10-01T11:07:31.220Z,100443.78
2022-10-01T11:10:22.762Z,100436.22
2022-10-01T11:13:08.649Z,100442.94
2022-10-01T11:15:43.121Z,100449.91
2022-10-01T11:18:35.840Z,100459.59
2022-10-01T11:21:30.259Z,100458.88
2022-10-01T11:24:35.637Z,100465.59
2022-10-01T11:27:27.183Z,100471.75
2022-10-01T11:30:20.117Z,100478.72
2022-10-01T11:33:10.641Z,100484.84
2022-10-01T11:35:44.069Z,100480.03
2022-10-01T11:38:37.904Z,100487.56
2022-10-01T11:41:20.181Z,100498.31
2022-10-01T11:43:54.164Z,100500.09
2022-10-01T11:46:59.543Z,100504.75
2022-10-01T11:49:26.653Z,100507.81
2022-10-01T11:52:23.547Z,100513.97
2022-10-01T11:55:21.827Z,100519.88
2022-10-01T11:58:26.409Z,100521.66
2022-10-01T12:01:18.676Z,100522.34
2022-10-01T12:03:54.284Z,100533.06
2022-10-01T12:06:29.397Z,100535.66
2022-10-01T12:09:17.439Z,100538.16
2022-10-01T12:11:49.237Z,100546.88
2022-10-01T12:14:20.639Z,100546.13
2022-10-01T12:16:56.641Z,100550.72
2022-10-01T12:19:34.237Z,100554.41
2022-10-01T12:22:11.131Z,100553.09
2022-10-01T12:24:42.663Z,100558.66
2022-10-01T12:27:14.653Z,100552.97
2022-10-01T12:29:52.515Z,100558.06
2022-10-01T12:32:48.349Z,100559.00
2022-10-01T12:35:47.286Z,100562.34
2022-10-01T12:38:31.239Z,100565.22
2022-10-01T12:41:29.158Z,100562.06
2022-10-01T12:44:49.404Z,100566.88
2022-10-01T12:47:27.319Z,100560.88
2022-10-01T12:50:05.857Z,100587.41
2022-10-01T12:52:44.972Z,100590.25
2022-10-01T12:55:22.508Z,100594.00
2022-10-01T12:58:16.187Z,100596.63
2022-10-01T13:01:03.378Z,100602.13
2022-10-01T13:03:59.898Z,100602.59
2022-10-01T13:06:46.887Z,100596.91
2022-10-01T13:09:35.374Z,100605.53
2022-10-01T13:12:44.801Z,100610.94
2022-10-01T13:15:20.410Z,100615.13
2022-10-01T13:18:00.169Z,100629.28
2022-10-01T13:20:41.155Z,100622.44
2022-10-01T13:23:28.954Z,100629.00
2022-10-01T13:26:10.414Z,100638.09
2022-10-01T13:28:47.333Z,100638.38
2022-10-01T13:31:18.989Z,100632.50
2022-10-01T13:33:56.646Z,100635.22
2022-10-01T13:36:32.353Z,100626.97
2022-10-01T13:38:59.226Z,100636.88
2022-10-01T13:41:29.524Z,100633.94
2022-10-01T13:44:04.188Z,100647.63
2022-10-01T13:46:36.813Z,100649.50
2022-10-01T13:49:15.797Z,100656.00
2022-10-01T13:51:45.957Z,100662.16
2022-10-01T13:54:23.860Z,100666.88
2022-10-01T13:56:50.323Z,100674.69
2022-10-01T13:59:37.628Z,100666.41
2022-10-01T14:02:28.652Z,100670.06
2022-10-01T14:05:04.010Z,100685.53
2022-10-01T14:07:35.823Z,100696.03
2022-10-01T14:10:02.733Z,100688.34
2022-10-01T14:12:50.877Z,100695.09
2022-10-01T14:15:39.256Z,100702.31
2022-10-01T14:18:16.208Z,100701.69
2022-10-01T14:21:01.201Z,100715.88
2022-10-01T14:23:39.259Z,100719.00
2022-10-01T14:26:18.879Z,100721.38
2022-10-01T14:29:17.359Z,100719.72
2022-10-01T14:32:05.176Z,100726.22
2022-10-01T14:34:43.930Z,100735.31
2022-10-01T14:37:17.606Z,100740.03
2022-10-01T14:39:44.089Z,100739.22
2022-10-01T14:42:17.135Z,100748.19
2022-10-01T14:44:46.686Z,100738.22
2022-10-01T14:47:21.785Z,100747.94
2022-10-01T14:49:48.866Z,100744.97
2022-10-01T14:52:31.312Z,100761.50
2022-10-01T14:55:02.617Z,100760.56
2022-10-01T14:57:37.829Z,100763.03
2022-10-01T15:00:13.743Z,100761.50
2022-10-01T15:02:51.949Z,100769.41
2022-10-01T15:05:30.902Z,100769.41
2022-10-01T15:08:02.108Z,100772.19
2022-10-01T15:10:31.291Z,100781.97
2022-10-01T15:12:58.236Z,100779.88
2022-10-01T15:15:29.602Z,100769.84
2022-10-01T15:17:56.145Z,100772.09
2022-10-01T15:20:23.188Z,100772.56
2022-10-01T15:22:58.996Z,100781.66
2022-10-01T15:25:30.256Z,100786.25
2022-10-01T15:27:56.976Z,100785.56
2022-10-01T15:30:26.407Z,100786.38
2022-10-01T15:32:53.374Z,100787.47
2022-10-01T15:35:22.909Z,100789.09
2022-10-01T15:37:52.160Z,100795.97
2022-10-01T15:40:30.553Z,100797.25
2022-10-01T15:43:23.679Z,100801.66
2022-10-01T15:46:04.935Z,100797.50
2022-10-01T15:48:32.905Z,100808.09
2022-10-01T15:51:03.260Z,100805.88
2022-10-01T15:53:30.501Z,100822.34
2022-10-01T15:55:59.687Z,100817.50
2022-10-01T15:58:31.742Z,100831.31
2022-10-01T16:01:13.673Z,100826.94
2022-10-01T16:03:53.744Z,100827.59
2022-10-01T16:06:27.387Z,100835.25
2022-10-01T16:09:16.073Z,100841.75
2022-10-01T16:11:57.589Z,100839.34
2022-10-01T16:14:55.717Z,100845.53
2022-10-01T16:17:27.077Z,100845.31
2022-10-01T16:20:00.031Z,100847.03
2022-10-01T16:22:32.098Z,100856.63
2022-10-01T16:25:22.807Z,100854.75
2022-10-01T16:28:03.672Z,100855.81
2022-10-01T16:30:31.248Z,100859.34
2022-10-01T16:33:00.112Z,100864.53
2022-10-01T16:35:29.259Z,100857.22
2022-10-01T16:37:57.852Z,100863.50
2022-10-01T16:40:29.909Z,100864.94
2022-10-01T16:42:58.047Z,100872.13
2022-10-01T16:45:27.581Z,100869.47
2022-10-01T16:47:56.641Z,100873.63
2022-10-01T16:50:23.798Z,100876.09
2022-10-01T16:52:55.338Z,100887.34
2022-10-01T16:55:27.397Z,100882.53
2022-10-01T16:57:54.495Z,100887.56
2022-10-01T17:00:22.869Z,100888.25
2022-10-01T17:02:52.170Z,100895.56
2022-10-01T17:05:30.405Z,100897.47
2022-10-01T17:08:05.148Z,100902.88
2022-10-01T17:10:36.302Z,100902.88
2022-10-01T17:13:03.521Z,100911.03
2022-10-01T17:15:30.560Z,100914.78
2022-10-01T17:17:58.359Z,100912.28
2022-10-01T17:20:28.508Z,100911.66
2022-10-01T17:22:55.927Z,100910.25
2022-10-01T17:25:31.819Z,100915.88
2022-10-01T17:27:59.567Z,100914.47
2022-10-01T17:30:29.112Z,100922.47
2022-10-01T17:32:56.891Z,100931.03
2022-10-01T17:35:23.464Z,100929.59
2022-10-01T17:37:49.853Z,100931.47
2022-10-01T17:40:16.768Z,100939.03
2022-10-01T17:42:43.165Z,100946.78
2022-10-01T17:45:12.085Z,100947.22
2022-10-01T17:47:46.416Z,100940.34
2022-10-01T17:50:13.391Z,100954.94
2022-10-01T17:52:39.991Z,100956.00
2022-10-01T17:55:07.220Z,100970.00
2022-10-01T17:57:34.062Z,100968.34
2022-10-01T18:00:00.556Z,100969.63
2022-10-01T18:02:41.423Z,100977.16
2022-10-01T18:05:12.279Z,100974.06
2022-10-01T18:07:38.949Z,100980.13
2022-10-01T18:10:07.432Z,100987.03
2022-10-01T18:12:34.402Z,100987.69
2022-10-01T18:15:01.649Z,100990.22
2022-10-01T18:17:28.005Z,100995.88
2022-10-01T18:19:54.696Z,100996.53
2022-10-01T18:22:21.537Z,101001.31
2022-10-01T18:24:47.944Z,101008.84
2022-10-01T18:27:14.486Z,101014.69
2022-10-01T18:29:40.896Z,101020.94
2022-10-01T18:32:20.625Z,101016.78
2022-10-01T18:34:57.664Z,101019.94
2022-10-01T18:37:36.308Z,101023.91
2022-10-01T18:40:19.897Z,101024.97
2022-10-01T18:43:13.592Z,101026.03
2022-10-01T18:46:17.715Z,101024.56
2022-10-01T18:48:58.535Z,101029.34
2022-10-01T18:51:54.939Z,101042.31
2022-10-01T18:54:55.634Z,101046.88
2022-10-01T18:57:33.995Z,101053.38
2022-10-01T19:00:10.659Z,101058.97
2022-10-01T19:02:56.826Z,101060.03
2022-10-01T19:05:51.304Z,101071.47
2022-10-01T19:09:02.370Z,101065.84
2022-10-01T19:12:01.365Z,101066.69
2022-10-01T19:14:57.685Z,101068.34
2022-10-01T19:17:23.961Z,101076.28
2022-10-01T19:19:53.226Z,101082.50
2022-10-01T19:22:47.578Z,101078.75
2022-10-01T19:25:27.033Z,101081.69
2022-10-01T19:28:35.361Z,101079.81
2022-10-01T19:31:50.168Z,101079.16
2022-10-01T19:34:31.301Z,101087.53
2022-10-01T19:37:22.686Z,101085.88
2022-10-01T19:39:52.282Z,101086.47
2022-10-01T19:42:25.679Z,101090.00
2022-10-01T19:44:54.636Z,101090.00
2022-10-01T19:47:36.197Z,101094.19
2022-10-01T19:50:12.801Z,101095.44
2022-10-01T19:52:42.544Z,101093.78
2022-10-01T19:55:16.154Z,101092.13
2022-10-01T19:57:44.598Z,101101.25
2022-10-01T20:00:19.174Z,101113.16
2022-10-01T20:03:09.795Z,101116.28
2022-10-01T20:05:49.568Z,101121.06
2022-10-01T20:08:29.465Z,101110.66
2022-10-01T20:11:02.710Z,101112.53
2022-10-01T20:14:00.064Z,101119.81
2022-10-01T20:16:50.345Z,101120.06
2022-10-01T20:19:27.233Z,101121.06
2022-10-01T20:22:07.559Z,101122.34
2022-10-01T20:24:49.512Z,101125.88
2022-10-01T20:27:27.900Z,101133.19
2022-10-01T20:30:14.574Z,101129.44
2022-10-01T20:32:56.018Z,101130.06
2022-10-01T20:36:03.874Z,101138.19
2022-10-01T20:39:04.519Z,101143.59
2022-10-01T20:41:43.739Z,101144.84
2022-10-01T20:44:15.710Z,101151.13
2022-10-01T20:46:58.185Z,101145.06
2022-10-01T20:50:09.566Z,101145.50
2022-10-01T20:52:55.550Z,101145.94
2022-10-01T20:55:29.123Z,101150.72
2022-10-01T20:58:00.138Z,101151.94
2022-10-01T21:00:28.343Z,101154.66
2022-10-01T21:03:17.826Z,101160.50
2022-10-01T21:05:49.123Z,101164.69
2022-10-01T21:08:27.342Z,101169.28
2022-10-01T21:10:57.829Z,101166.75
2022-10-01T21:13:33.245Z,101165.69
2022-10-01T21:16:11.801Z,101168.00
2022-10-01T21:19:02.817Z,101159.69
2022-10-01T21:21:55.577Z,101155.09
2022-10-01T21:24:53.322Z,101163.22
2022-10-01T21:27:34.003Z,101152.59
2022-10-01T21:30:17.529Z,101154.06
2022-10-01T21:33:11.610Z,101153.22
2022-10-01T21:36:02.437Z,101158.00
2022-10-01T21:38:43.964Z,101151.34
2022-10-01T21:41:28.816Z,101148.44
2022-10-01T21:44:22.333Z,101151.56
2022-10-01T21:47:26.016Z,101155.50
2022-10-01T21:50:09.489Z,101177.81
2022-10-01T21:52:45.384Z,101176.75
2022-10-01T21:55:56.976Z,101181.75
2022-10-01T21:58:37.586Z,101178.00
2022-10-01T22:01:16.225Z,101183.00
2022-10-01T22:04:03.061Z,101224.22
2022-10-01T22:06:31.805Z,101212.97
2022-10-01T22:09:18.694Z,101230.47
2022-10-01T22:11:53.567Z,101242.97
2022-10-01T22:14:21.591Z,101234.44
2022-10-01T22:17:11.456Z,101231.50
2022-10-01T22:19:42.962Z,101233.16
2022-10-01T22:22:13.270Z,101231.09
2022-10-01T22:24:47.626Z,101232.97
2022-10-01T22:27:26.420Z,101227.75
2022-10-01T22:30:00.145Z,101222.56
2022-10-01T22:32:33.121Z,101244.44
2022-10-01T22:35:04.629Z,101232.78
2022-10-01T22:37:36.715Z,101230.47
2022-10-01T22:40:09.896Z,101238.59
2022-10-01T22:42:44.661Z,101242.13
2022-10-01T22:45:17.520Z,101241.50
2022-10-01T22:47:52.801Z,101241.72
2022-10-01T22:50:47.633Z,101250.88
2022-10-01T22:53:23.509Z,101253.59
2022-10-01T22:55:53.034Z,101247.53
2022-10-01T22:58:32.457Z,101241.50
2022-10-01T23:01:29.283Z,101245.25
2022-10-01T23:04:19.679Z,101240.88
2022-10-01T23:07:09.172Z,101237.97
2022-10-01T23:09:47.117Z,101239.63
2022-10-01T23:12:50.095Z,101251.06
2022-10-01T23:15:47.584Z,101242.94
2022-10-01T23:18:41.551Z,101248.56
2022-10-01T23:21:26.669Z,101241.69
2022-10-01T23:24:31.663Z,101248.78
2022-10-01T23:27:08.726Z,101246.69
2022-10-01T23:30:01.891Z,101240.63
2022-10-01T23:32:55.809Z,101255.81
2022-10-01T23:35:34.706Z,101313.91
2022-10-01T23:38:12.614Z,101303.00
2022-10-01T23:40:42.081Z,101308.59
2022-10-01T23:43:30.881Z,101296.50
2022-10-01T23:46:05.077Z,101297.38
2022-10-01T23:48:42.729Z,101282.38
2022-10-01T23:51:38.068Z,101280.09
2022-10-01T23:54:38.500Z,101274.69
2022-10-01T23:57:21.536Z,101274.28
2022-10-01T23:59:55.101Z,101272.25
